Aviation Digital Data Service (ADDS)

Output produced by METARs form (1151 UTC 11 December 2016)
found at http://www.aviationweather.gov/adds/metars/
 
KTHV 111053Z AUTO 00000KT 10SM BKN075 OVC090 M04/M07 A3050 RMK AO2 SLP338 T10391067
KTHV 110953Z AUTO 00000KT 10SM OVC090 M04/M07 A3049 RMK AO2 SLP334 T10391067
KTHV 110853Z AUTO 00000KT 10SM OVC120 M04/M07 A3048 RMK AO2 SLP332 T10441072 53001
KTHV 110753Z AUTO 00000KT 10SM FEW120 M05/M07 A3048 RMK AO2 SLP331 T10501072
KTHV 110653Z AUTO 00000KT 10SM CLR M05/M08 A3048 RMK AO2 SLP332 T10501078
KTHV 110553Z AUTO 00000KT 10SM CLR M06/M08 A3048 RMK AO2 SLP331 T10561083 11039 21067 55000
KTHV 110453Z AUTO 00000KT 10SM CLR M06/M09 A3048 RMK AO2 SLP332 T10561094 400171067
KTHV 110353Z AUTO 00000KT 10SM CLR M06/M11 A3048 RMK AO2 SLP330 T10611106
KTHV 110253Z AUTO 26003KT 10SM CLR M05/M10 A3048 RMK AO2 SLP331 T10501100 52003
KTHV 110153Z AUTO 25004KT 10SM CLR M04/M11 A3048 RMK AO2 SLP330 T10441106
KTHV 110053Z AUTO 28003KT 10SM CLR M05/M11 A3048 RMK AO2 SLP330 T10501106
KTHV 102353Z AUTO 27003KT 10SM CLR M04/M11 A3047 RMK AO2 SLP328 T10441106 10017 21044 51017
KTHV 102253Z AUTO 28006KT 10SM CLR M03/M10 A3046 RMK AO2 SLP324 T10281100
KTHV 102153Z AUTO 29005KT 10SM CLR M02/M10 A3044 RMK AO2 SLP318 T10221100
KTHV 102053Z AUTO 29009KT 10SM CLR M01/M11 A3042 RMK AO2 SLP311 T10061106 53007
KTHV 101953Z AUTO 32011KT 10SM BKN050 00/M10 A3040 RMK AO2 SLP303 T00001100
KTHV 101853Z AUTO 29008KT 10SM SCT049 00/M10 A3040 RMK AO2 SLP301 T00001100
KTHV 101753Z AUTO 27013G19KT 10SM BKN110 01/M09 A3040 RMK AO2 SLP302 T00061094 10011 21033 56018
KTHV 101653Z AUTO 29009KT 10SM BKN120 01/M10 A3040 RMK AO2 SLP303 T00061100
KTHV 101553Z AUTO 29014G19KT 10SM CLR 01/M09 A3044 RMK AO2 SLP315 T00061094
KTHV 101453Z AUTO 27008G17KT 10SM CLR M01/M08 A3045 RMK AO2 SLP320 T10061078 53009
KTHV 101353Z AUTO 28006KT 10SM CLR M02/M08 A3044 RMK AO2 SLP318 T10221078
KTHV 101253Z AUTO 26009KT 10SM CLR M02/M08 A3044 RMK AO2 SLP315 T10221083
KTHV 101153Z AUTO 26005KT 10SM CLR M03/M08 A3043 RMK AO2 SLP312 T10331078 11033 21050 53010
KTHV 101053Z AUTO 27005KT 10SM CLR M03/M08 A3041 RMK AO2 SLP307 T10331078
KTHV 100953Z AUTO 27006KT 10SM CLR M04/M08 A3039 RMK AO2 SLP302 T10391083
KTHV 100853Z AUTO 27004KT 10SM CLR M04/M08 A3039 RMK AO2 SLP300 T10441083 51008
KTHV 100753Z AUTO 27005KT 10SM CLR M03/M08 A3039 RMK AO2 SLP300 T10331083
KTHV 100653Z AUTO 26005KT 10SM FEW070 M03/M08 A3039 RMK AO2 SLP298 T10331083
KTHV 100553Z AUTO 26004KT 10SM CLR M04/M08 A3037 RMK AO2 SLP293 T10391083 11017 21039 51008
KTHV 100453Z AUTO 26006KT 10SM CLR M03/M08 A3037 RMK AO2 SLP291 T10281083 400221039
KTHV 100353Z AUTO 27003KT 10SM CLR M04/M08 A3035 RMK AO2 SLP286 T10391083
KTHV 100253Z AUTO 26005KT 10SM CLR M03/M08 A3035 RMK AO2 SLP284 T10331083 50000
KTHV 100153Z AUTO 27008KT 10SM CLR M03/M08 A3035 RMK AO2 SLP285 T10281078
KTHV 100053Z AUTO 27009KT 10SM CLR M02/M08 A3036 RMK AO2 SLP290 T10221078
KTHV 092353Z AUTO 28009KT 10SM CLR M02/M08 A3035 RMK AO2 SLP285 T10171083 10022 21017 51017